sensor_id;sensor_type;location;lat;lon;timestamp;pressure;altitude;pressure_sealevel;temperature;humidity
7182;BME280;3632;42.724;23.298;2023-02-21T00:01:48;95787.78;;;7.02;63.27
7182;BME280;3632;42.724;23.298;2023-02-21T00:04:32;95789.28;;;7.20;63.20
7182;BME280;3632;42.724;23.298;2023-02-21T00:07:19;95792.16;;;7.14;62.97
7182;BME280;3632;42.724;23.298;2023-02-21T00:10:03;95785.88;;;7.21;63.50
7182;BME280;3632;42.724;23.298;2023-02-21T00:12:48;95793.63;;;7.18;63.23
7182;BME280;3632;42.724;23.298;2023-02-21T00:15:32;95756.09;;;6.95;62.76
7182;BME280;3632;42.724;23.298;2023-02-21T00:18:16;95673.34;;;6.50;62.63
7182;BME280;3632;42.724;23.298;2023-02-21T00:21:01;95788.09;;;7.11;62.78
7182;BME280;3632;42.724;23.298;2023-02-21T00:23:46;95785.47;;;7.13;63.02
7182;BME280;3632;42.724;23.298;2023-02-21T00:26:30;95783.53;;;7.02;63.19
7182;BME280;3632;42.724;23.298;2023-02-21T00:29:14;95777.56;;;6.73;64.41
7182;BME280;3632;42.724;23.298;2023-02-21T00:31:58;95786.69;;;6.76;65.05
7182;BME280;3632;42.724;23.298;2023-02-21T00:34:42;95773.31;;;6.74;63.87
7182;BME280;3632;42.724;23.298;2023-02-21T00:37:27;95606.44;;;5.78;63.99
7182;BME280;3632;42.724;23.298;2023-02-21T00:40:14;95772.00;;;6.67;64.59
7182;BME280;3632;42.724;23.298;2023-02-21T00:42:59;95774.00;;;6.62;64.79
7182;BME280;3632;42.724;23.298;2023-02-21T00:45:44;95733.91;;;6.38;65.06
7182;BME280;3632;42.724;23.298;2023-02-21T00:48:29;95764.09;;;6.41;65.41
7182;BME280;3632;42.724;23.298;2023-02-21T00:51:14;95750.72;;;6.39;66.40
7182;BME280;3632;42.724;23.298;2023-02-21T00:53:58;95754.09;;;6.40;66.35
7182;BME280;3632;42.724;23.298;2023-02-21T00:56:44;95780.28;;;6.39;65.64
7182;BME280;3632;42.724;23.298;2023-02-21T00:59:29;95763.81;;;6.77;64.54
7182;BME280;3632;42.724;23.298;2023-02-21T01:02:13;95733.84;;;6.70;64.69
7182;BME280;3632;42.724;23.298;2023-02-21T01:04:57;95732.50;;;6.49;65.83
7182;BME280;3632;42.724;23.298;2023-02-21T01:07:42;95713.78;;;6.51;66.13
7182;BME280;3632;42.724;23.298;2023-02-21T01:10:26;95745.47;;;6.58;65.85
7182;BME280;3632;42.724;23.298;2023-02-21T01:13:12;95716.47;;;6.64;65.50
7182;BME280;3632;42.724;23.298;2023-02-21T01:15:56;95712.66;;;6.86;64.81
7182;BME280;3632;42.724;23.298;2023-02-21T01:18:40;95709.38;;;6.84;64.68
7182;BME280;3632;42.724;23.298;2023-02-21T01:21:24;95592.00;;;5.96;65.38
7182;BME280;3632;42.724;23.298;2023-02-21T01:24:11;95738.34;;;6.65;65.34
7182;BME280;3632;42.724;23.298;2023-02-21T01:26:55;95629.47;;;6.35;65.02
7182;BME280;3632;42.724;23.298;2023-02-21T01:29:41;95605.47;;;5.65;64.19
7182;BME280;3632;42.724;23.298;2023-02-21T01:32:25;95701.66;;;7.16;63.69
7182;BME280;3632;42.724;23.298;2023-02-21T01:35:09;95435.59;;;5.59;63.18
7182;BME280;3632;42.724;23.298;2023-02-21T01:37:55;95571.59;;;6.29;63.38
7182;BME280;3632;42.724;23.298;2023-02-21T01:40:39;95701.84;;;7.13;63.27
7182;BME280;3632;42.724;23.298;2023-02-21T01:43:25;95697.47;;;7.15;63.48
7182;BME280;3632;42.724;23.298;2023-02-21T01:46:12;95704.72;;;7.07;63.83
7182;BME280;3632;42.724;23.298;2023-02-21T01:48:58;95651.28;;;6.81;63.65
7182;BME280;3632;42.724;23.298;2023-02-21T01:51:43;95574.78;;;6.47;63.17
7182;BME280;3632;42.724;23.298;2023-02-21T01:54:31;95562.56;;;6.39;62.57
7182;BME280;3632;42.724;23.298;2023-02-21T01:57:17;95675.84;;;7.23;62.78
7182;BME280;3632;42.724;23.298;2023-02-21T02:00:05;95620.88;;;6.81;63.41
7182;BME280;3632;42.724;23.298;2023-02-21T02:02:55;95674.31;;;7.21;62.63
7182;BME280;3632;42.724;23.298;2023-02-21T02:05:41;95579.44;;;6.68;62.87
7182;BME280;3632;42.724;23.298;2023-02-21T02:08:28;95613.09;;;6.70;62.75
7182;BME280;3632;42.724;23.298;2023-02-21T02:11:49;95662.16;;;7.26;63.07
7182;BME280;3632;42.724;23.298;2023-02-21T02:15:05;95648.16;;;7.20;62.44
7182;BME280;3632;42.724;23.298;2023-02-21T02:17:42;95656.84;;;7.16;62.93
7182;BME280;3632;42.724;23.298;2023-02-21T02:20:44;95599.47;;;6.43;62.18
7182;BME280;3632;42.724;23.298;2023-02-21T02:23:33;95660.47;;;7.12;63.13
7182;BME280;3632;42.724;23.298;2023-02-21T02:26:38;95657.16;;;6.96;64.47
7182;BME280;3632;42.724;23.298;2023-02-21T02:29:24;95596.88;;;6.45;65.07
7182;BME280;3632;42.724;23.298;2023-02-21T02:32:32;95645.47;;;6.35;66.13
7182;BME280;3632;42.724;23.298;2023-02-21T02:35:07;95687.72;;;5.72;66.28
7182;BME280;3632;42.724;23.298;2023-02-21T02:37:41;95499.25;;;5.65;65.54
7182;BME280;3632;42.724;23.298;2023-02-21T02:40:18;95655.78;;;6.76;65.05
7182;BME280;3632;42.724;23.298;2023-02-21T02:42:59;95648.50;;;6.86;64.54
7182;BME280;3632;42.724;23.298;2023-02-21T02:45:33;95635.19;;;6.82;63.86
7182;BME280;3632;42.724;23.298;2023-02-21T02:48:08;95018.31;;;2.71;64.83
7182;BME280;3632;42.724;23.298;2023-02-21T02:50:40;95645.66;;;6.76;65.65
7182;BME280;3632;42.724;23.298;2023-02-21T02:53:07;95252.06;;;4.23;64.92
7182;BME280;3632;42.724;23.298;2023-02-21T02:55:39;95106.94;;;2.76;64.12
7182;BME280;3632;42.724;23.298;2023-02-21T02:58:09;95338.09;;;3.85;64.14
7182;BME280;3632;42.724;23.298;2023-02-21T03:00:38;95171.53;;;3.26;63.49
7182;BME280;3632;42.724;23.298;2023-02-21T03:03:25;94918.63;;;2.68;63.27
7182;BME280;3632;42.724;23.298;2023-02-21T03:06:10;95582.06;;;6.81;63.78
7182;BME280;3632;42.724;23.298;2023-02-21T03:08:46;95628.88;;;7.04;63.31
7182;BME280;3632;42.724;23.298;2023-02-21T03:11:18;94931.53;;;2.78;63.73
7182;BME280;3632;42.724;23.298;2023-02-21T03:13:49;95635.94;;;7.13;63.03
7182;BME280;3632;42.724;23.298;2023-02-21T03:16:22;95334.13;;;5.21;63.01
7182;BME280;3632;42.724;23.298;2023-02-21T03:18:53;94929.91;;;2.61;63.10
7182;BME280;3632;42.724;23.298;2023-02-21T03:21:25;95624.50;;;7.06;63.53
7182;BME280;3632;42.724;23.298;2023-02-21T03:23:57;95638.97;;;6.46;64.07
7182;BME280;3632;42.724;23.298;2023-02-21T03:26:27;95627.44;;;7.00;63.38
7182;BME280;3632;42.724;23.298;2023-02-21T03:28:57;95478.44;;;5.91;62.94
7182;BME280;3632;42.724;23.298;2023-02-21T03:31:28;95618.91;;;7.15;63.22
7182;BME280;3632;42.724;23.298;2023-02-21T03:33:56;95508.69;;;6.37;63.58
7182;BME280;3632;42.724;23.298;2023-02-21T03:36:26;95622.41;;;6.84;64.02
7182;BME280;3632;42.724;23.298;2023-02-21T03:38:53;95416.66;;;4.90;67.01
7182;BME280;3632;42.724;23.298;2023-02-21T03:41:20;95631.16;;;6.05;67.53
7182;BME280;3632;42.724;23.298;2023-02-21T03:43:47;95641.28;;;6.05;68.01
7182;BME280;3632;42.724;23.298;2023-02-21T03:46:14;95635.16;;;6.09;67.66
7182;BME280;3632;42.724;23.298;2023-02-21T03:48:41;94973.97;;;1.70;68.70
7182;BME280;3632;42.724;23.298;2023-02-21T03:51:08;95553.47;;;5.30;69.15
7182;BME280;3632;42.724;23.298;2023-02-21T03:53:37;95540.81;;;5.14;69.12
7182;BME280;3632;42.724;23.298;2023-02-21T03:56:04;95707.53;;;5.80;69.39
7182;BME280;3632;42.724;23.298;2023-02-21T03:58:32;94737.41;;;0.12;69.42
7182;BME280;3632;42.724;23.298;2023-02-21T04:00:59;95067.81;;;1.69;69.36
7182;BME280;3632;42.724;23.298;2023-02-21T04:03:26;95644.59;;;5.74;69.36
7182;BME280;3632;42.724;23.298;2023-02-21T04:05:53;94965.25;;;1.43;69.31
7182;BME280;3632;42.724;23.298;2023-02-21T04:08:20;95536.75;;;5.12;68.71
7182;BME280;3632;42.724;23.298;2023-02-21T04:10:48;95261.25;;;3.44;68.56
7182;BME280;3632;42.724;23.298;2023-02-21T04:13:15;95037.06;;;2.33;67.72
7182;BME280;3632;42.724;23.298;2023-02-21T04:15:43;95492.47;;;5.20;67.34
7182;BME280;3632;42.724;23.298;2023-02-21T04:18:10;95492.25;;;5.25;66.64
7182;BME280;3632;42.724;23.298;2023-02-21T04:20:37;95192.50;;;3.42;66.56
7182;BME280;3632;42.724;23.298;2023-02-21T04:23:04;94910.06;;;1.75;66.49
7182;BME280;3632;42.724;23.298;2023-02-21T04:25:31;95676.88;;;6.47;66.02
7182;BME280;3632;42.724;23.298;2023-02-21T04:27:59;95111.19;;;1.72;66.18
7182;BME280;3632;42.724;23.298;2023-02-21T04:30:26;95626.34;;;5.53;66.44
7182;BME280;3632;42.724;23.298;2023-02-21T04:32:53;95680.13;;;6.19;66.77
7182;BME280;3632;42.724;23.298;2023-02-21T04:35:19;95528.41;;;5.10;67.04
7182;BME280;3632;42.724;23.298;2023-02-21T04:37:46;95270.94;;;2.50;66.51
7182;BME280;3632;42.724;23.298;2023-02-21T04:40:13;95181.47;;;2.79;66.59
7182;BME280;3632;42.724;23.298;2023-02-21T04:42:40;95715.28;;;6.39;66.18
7182;BME280;3632;42.724;23.298;2023-02-21T04:45:09;95007.09;;;1.61;65.63
7182;BME280;3632;42.724;23.298;2023-02-21T04:47:36;95619.25;;;5.75;65.07
7182;BME280;3632;42.724;23.298;2023-02-21T04:50:03;95631.00;;;6.37;64.36
7182;BME280;3632;42.724;23.298;2023-02-21T04:52:31;95662.38;;;6.65;64.96
7182;BME280;3632;42.724;23.298;2023-02-21T04:54:58;95663.75;;;6.70;64.52
7182;BME280;3632;42.724;23.298;2023-02-21T04:57:25;95266.59;;;3.05;64.67
7182;BME280;3632;42.724;23.298;2023-02-21T04:59:58;95496.34;;;5.57;64.62
7182;BME280;3632;42.724;23.298;2023-02-21T05:02:28;94789.84;;;1.19;64.73
7182;BME280;3632;42.724;23.298;2023-02-21T05:04:55;95566.69;;;5.96;64.53
7182;BME280;3632;42.724;23.298;2023-02-21T05:07:22;95649.34;;;6.41;65.20
7182;BME280;3632;42.724;23.298;2023-02-21T05:09:49;94860.59;;;0.38;65.47
7182;BME280;3632;42.724;23.298;2023-02-21T05:12:15;94905.03;;;0.54;66.21
7182;BME280;3632;42.724;23.298;2023-02-21T05:14:42;95654.06;;;5.86;67.40
7182;BME280;3632;42.724;23.298;2023-02-21T05:17:09;95478.59;;;4.49;68.19
7182;BME280;3632;42.724;23.298;2023-02-21T05:19:38;94691.97;;;0.00;66.52
7182;BME280;3632;42.724;23.298;2023-02-21T05:22:05;95334.06;;;4.30;66.61
7182;BME280;3632;42.724;23.298;2023-02-21T05:24:33;95235.97;;;3.30;67.53
7182;BME280;3632;42.724;23.298;2023-02-21T05:27:00;95671.53;;;5.11;67.39
7182;BME280;3632;42.724;23.298;2023-02-21T05:29:27;94847.72;;;0.99;67.15
7182;BME280;3632;42.724;23.298;2023-02-21T05:31:54;95721.59;;;6.17;66.70
7182;BME280;3632;42.724;23.298;2023-02-21T05:34:21;95679.47;;;6.00;66.79
7182;BME280;3632;42.724;23.298;2023-02-21T05:36:49;95639.34;;;5.94;67.54
7182;BME280;3632;42.724;23.298;2023-02-21T05:39:16;95610.88;;;5.11;68.14
7182;BME280;3632;42.724;23.298;2023-02-21T05:41:47;95521.00;;;5.06;68.54
7182;BME280;3632;42.724;23.298;2023-02-21T05:44:14;95585.59;;;5.59;67.91
7182;BME280;3632;42.724;23.298;2023-02-21T05:46:41;95650.13;;;5.97;67.60
7182;BME280;3632;42.724;23.298;2023-02-21T05:49:08;95656.78;;;5.83;68.47
7182;BME280;3632;42.724;23.298;2023-02-21T05:51:35;95537.03;;;4.90;68.00
7182;BME280;3632;42.724;23.298;2023-02-21T05:54:05;95229.28;;;2.61;68.45
7182;BME280;3632;42.724;23.298;2023-02-21T05:56:37;95269.25;;;2.50;69.03
7182;BME280;3632;42.724;23.298;2023-02-21T05:59:04;95120.53;;;2.39;68.07
7182;BME280;3632;42.724;23.298;2023-02-21T06:01:31;95459.38;;;4.13;66.85
7182;BME280;3632;42.724;23.298;2023-02-21T06:03:58;95679.13;;;6.22;66.95
7182;BME280;3632;42.724;23.298;2023-02-21T06:06:25;94996.25;;;2.10;66.70
7182;BME280;3632;42.724;23.298;2023-02-21T06:08:52;95678.41;;;6.50;65.47
7182;BME280;3632;42.724;23.298;2023-02-21T06:11:25;95278.94;;;4.24;65.01
7182;BME280;3632;42.724;23.298;2023-02-21T06:13:53;95072.69;;;2.41;65.04
7182;BME280;3632;42.724;23.298;2023-02-21T06:16:21;94999.66;;;1.92;64.17
7182;BME280;3632;42.724;23.298;2023-02-21T06:18:49;95674.00;;;6.83;65.03
7182;BME280;3632;42.724;23.298;2023-02-21T06:21:16;95600.03;;;6.62;63.21
7182;BME280;3632;42.724;23.298;2023-02-21T06:23:43;95550.72;;;6.54;62.40
7182;BME280;3632;42.724;23.298;2023-02-21T06:26:11;95708.16;;;7.06;63.08
7182;BME280;3632;42.724;23.298;2023-02-21T06:28:40;95422.22;;;5.86;62.72
7182;BME280;3632;42.724;23.298;2023-02-21T06:31:07;95671.97;;;7.46;62.34
7182;BME280;3632;42.724;23.298;2023-02-21T06:33:35;95563.22;;;6.42;62.13
7182;BME280;3632;42.724;23.298;2023-02-21T06:36:03;95489.25;;;6.37;61.65
7182;BME280;3632;42.724;23.298;2023-02-21T06:38:31;95667.81;;;7.86;61.44
7182;BME280;3632;42.724;23.298;2023-02-21T06:40:57;94869.75;;;2.88;60.42
7182;BME280;3632;42.724;23.298;2023-02-21T06:43:24;95675.00;;;7.79;61.80
7182;BME280;3632;42.724;23.298;2023-02-21T06:45:52;95728.56;;;7.89;61.42
7182;BME280;3632;42.724;23.298;2023-02-21T06:48:19;94995.47;;;3.66;60.93
7182;BME280;3632;42.724;23.298;2023-02-21T06:50:46;95675.81;;;8.21;60.41
7182;BME280;3632;42.724;23.298;2023-02-21T06:53:13;95600.75;;;7.90;59.86
7182;BME280;3632;42.724;23.298;2023-02-21T06:55:40;95557.09;;;6.75;58.70
7182;BME280;3632;42.724;23.298;2023-02-21T06:58:07;95328.25;;;6.35;58.38
7182;BME280;3632;42.724;23.298;2023-02-21T07:00:35;95472.91;;;6.57;58.28
7182;BME280;3632;42.724;23.298;2023-02-21T07:03:03;95711.81;;;9.06;57.30
7182;BME280;3632;42.724;23.298;2023-02-21T07:05:30;95597.25;;;8.05;58.78
7182;BME280;3632;42.724;23.298;2023-02-21T07:07:59;95671.75;;;8.18;60.72
7182;BME280;3632;42.724;23.298;2023-02-21T07:10:26;95677.47;;;8.08;61.87
7182;BME280;3632;42.724;23.298;2023-02-21T07:12:53;95674.06;;;8.21;60.73
7182;BME280;3632;42.724;23.298;2023-02-21T07:15:20;95503.34;;;7.39;61.43
7182;BME280;3632;42.724;23.298;2023-02-21T07:17:47;95405.19;;;7.14;59.71
7182;BME280;3632;42.724;23.298;2023-02-21T07:20:15;95676.84;;;9.23;58.17
7182;BME280;3632;42.724;23.298;2023-02-21T07:22:42;95393.44;;;7.65;57.55
7182;BME280;3632;42.724;23.298;2023-02-21T07:25:13;95667.84;;;9.42;57.04
7182;BME280;3632;42.724;23.298;2023-02-21T07:27:40;95656.50;;;8.97;58.07
7182;BME280;3632;42.724;23.298;2023-02-21T07:30:08;95652.72;;;8.90;58.67
7182;BME280;3632;42.724;23.298;2023-02-21T07:32:35;95653.94;;;8.85;58.83
7182;BME280;3632;42.724;23.298;2023-02-21T07:35:02;95661.16;;;8.78;59.11
7182;BME280;3632;42.724;23.298;2023-02-21T07:37:30;95641.53;;;9.05;59.34
7182;BME280;3632;42.724;23.298;2023-02-21T07:39:57;95643.06;;;9.33;57.82
7182;BME280;3632;42.724;23.298;2023-02-21T07:42:24;95637.44;;;9.53;57.38
7182;BME280;3632;42.724;23.298;2023-02-21T07:44:54;95642.59;;;9.64;56.92
7182;BME280;3632;42.724;23.298;2023-02-21T07:47:22;95635.50;;;9.81;56.42
7182;BME280;3632;42.724;23.298;2023-02-21T07:49:49;95640.25;;;9.98;55.55
7182;BME280;3632;42.724;23.298;2023-02-21T07:52:18;95630.00;;;9.63;56.25
7182;BME280;3632;42.724;23.298;2023-02-21T07:54:46;95636.63;;;9.40;57.32
7182;BME280;3632;42.724;23.298;2023-02-21T07:57:15;95626.56;;;9.39;57.05
7182;BME280;3632;42.724;23.298;2023-02-21T07:59:42;95608.19;;;9.10;57.16
7182;BME280;3632;42.724;23.298;2023-02-21T08:02:09;95620.03;;;9.47;56.30
7182;BME280;3632;42.724;23.298;2023-02-21T08:04:36;95575.66;;;9.51;55.78
7182;BME280;3632;42.724;23.298;2023-02-21T08:07:04;95618.22;;;10.09;55.10
7182;BME280;3632;42.724;23.298;2023-02-21T08:09:30;95620.78;;;10.33;54.01
7182;BME280;3632;42.724;23.298;2023-02-21T08:11:59;95626.50;;;10.94;56.10
7182;BME280;3632;42.724;23.298;2023-02-21T08:14:26;95554.81;;;10.52;53.31
7182;BME280;3632;42.724;23.298;2023-02-21T08:16:52;95615.63;;;10.46;54.00
7182;BME280;3632;42.724;23.298;2023-02-21T08:19:19;95606.25;;;10.58;54.29
7182;BME280;3632;42.724;23.298;2023-02-21T08:21:46;95622.25;;;10.60;55.91
7182;BME280;3632;42.724;23.298;2023-02-21T08:24:14;95613.97;;;10.80;55.95
7182;BME280;3632;42.724;23.298;2023-02-21T08:26:41;95555.94;;;10.48;54.20
7182;BME280;3632;42.724;23.298;2023-02-21T08:29:11;95490.06;;;10.09;53.23
7182;BME280;3632;42.724;23.298;2023-02-21T08:31:39;95608.91;;;11.13;52.95
7182;BME280;3632;42.724;23.298;2023-02-21T08:34:07;95598.03;;;11.11;52.25
7182;BME280;3632;42.724;23.298;2023-02-21T08:36:36;95330.19;;;8.38;52.50
7182;BME280;3632;42.724;23.298;2023-02-21T08:39:04;95604.00;;;10.99;52.38
7182;BME280;3632;42.724;23.298;2023-02-21T08:41:34;95593.22;;;10.95;52.78
7182;BME280;3632;42.724;23.298;2023-02-21T08:44:01;95517.06;;;10.58;53.09
7182;BME280;3632;42.724;23.298;2023-02-21T08:46:29;95591.16;;;11.45;52.31
7182;BME280;3632;42.724;23.298;2023-02-21T08:48:56;95598.44;;;11.72;51.61
7182;BME280;3632;42.724;23.298;2023-02-21T08:51:24;95593.56;;;11.69;51.07
7182;BME280;3632;42.724;23.298;2023-02-21T08:53:50;95589.06;;;11.83;51.05
7182;BME280;3632;42.724;23.298;2023-02-21T08:56:17;95603.28;;;11.97;50.49
7182;BME280;3632;42.724;23.298;2023-02-21T08:58:44;95489.22;;;11.32;49.79
7182;BME280;3632;42.724;23.298;2023-02-21T09:01:11;95404.88;;;11.02;49.07
7182;BME280;3632;42.724;23.298;2023-02-21T09:03:39;95548.09;;;11.74;49.20
7182;BME280;3632;42.724;23.298;2023-02-21T09:06:06;95587.28;;;12.48;58.70
7182;BME280;3632;42.724;23.298;2023-02-21T09:08:34;95534.38;;;12.59;53.51
7182;BME280;3632;42.724;23.298;2023-02-21T09:11:02;95493.53;;;12.27;49.21
7182;BME280;3632;42.724;23.298;2023-02-21T09:13:30;95534.66;;;13.17;49.51
7182;BME280;3632;42.724;23.298;2023-02-21T09:15:57;95064.75;;;10.73;47.53
7182;BME280;3632;42.724;23.298;2023-02-21T09:18:25;95447.13;;;14.09;50.55
7182;BME280;3632;42.724;23.298;2023-02-21T09:20:53;95064.63;;;12.13;53.26
7182;BME280;3632;42.724;23.298;2023-02-21T09:23:22;95569.38;;;15.23;44.55
7182;BME280;3632;42.724;23.298;2023-02-21T09:25:50;95565.03;;;15.60;44.50
7182;BME280;3632;42.724;23.298;2023-02-21T09:28:18;95554.78;;;15.95;42.85
7182;BME280;3632;42.724;23.298;2023-02-21T09:30:45;95556.91;;;16.00;41.71
7182;BME280;3632;42.724;23.298;2023-02-21T09:33:13;95072.69;;;13.03;40.90
7182;BME280;3632;42.724;23.298;2023-02-21T09:35:42;95041.94;;;13.22;39.83
7182;BME280;3632;42.724;23.298;2023-02-21T09:38:10;95250.41;;;14.76;37.59
7182;BME280;3632;42.724;23.298;2023-02-21T09:40:40;95642.06;;;16.77;37.79
7182;BME280;3632;42.724;23.298;2023-02-21T09:43:12;95130.47;;;14.60;38.43
7182;BME280;3632;42.724;23.298;2023-02-21T09:45:43;94911.97;;;13.44;38.17
7182;BME280;3632;42.724;23.298;2023-02-21T09:48:13;95529.88;;;17.60;37.70
7182;BME280;3632;42.724;23.298;2023-02-21T09:50:44;95024.19;;;14.54;37.76
7182;BME280;3632;42.724;23.298;2023-02-21T09:53:17;95592.78;;;17.92;36.82
7182;BME280;3632;42.724;23.298;2023-02-21T09:55:47;95203.22;;;16.23;36.65
7182;BME280;3632;42.724;23.298;2023-02-21T09:58:17;95470.00;;;18.23;35.78
7182;BME280;3632;42.724;23.298;2023-02-21T10:00:45;95514.66;;;18.72;32.29
7182;BME280;3632;42.724;23.298;2023-02-21T10:03:38;95516.63;;;18.70;31.71
7182;BME280;3632;42.724;23.298;2023-02-21T10:06:11;95308.94;;;16.54;31.19
7182;BME280;3632;42.724;23.298;2023-02-21T10:08:47;95513.19;;;18.86;31.24
7182;BME280;3632;42.724;23.298;2023-02-21T10:11:37;95442.81;;;18.76;30.58
7182;BME280;3632;42.724;23.298;2023-02-21T10:14:17;95487.88;;;19.28;30.06
7182;BME280;3632;42.724;23.298;2023-02-21T10:16:52;95496.22;;;19.46;29.42
7182;BME280;3632;42.724;23.298;2023-02-21T10:19:25;95496.22;;;19.46;28.62
7182;BME280;3632;42.724;23.298;2023-02-21T10:21:56;95454.44;;;18.88;29.42
7182;BME280;3632;42.724;23.298;2023-02-21T10:24:26;95403.25;;;18.91;29.53
7182;BME280;3632;42.724;23.298;2023-02-21T10:26:59;95475.97;;;19.58;29.11
7182;BME280;3632;42.724;23.298;2023-02-21T10:29:36;95441.44;;;19.12;28.82
7182;BME280;3632;42.724;23.298;2023-02-21T10:32:04;94966.13;;;16.44;28.93
7182;BME280;3632;42.724;23.298;2023-02-21T10:34:32;95481.94;;;20.35;28.83
7182;BME280;3632;42.724;23.298;2023-02-21T10:37:03;95457.97;;;20.85;28.44
7182;BME280;3632;42.724;23.298;2023-02-21T10:39:39;95450.00;;;21.30;27.67
7182;BME280;3632;42.724;23.298;2023-02-21T10:42:13;95203.59;;;19.51;26.75
7182;BME280;3632;42.724;23.298;2023-02-21T10:44:44;95412.59;;;20.74;27.07
7182;BME280;3632;42.724;23.298;2023-02-21T10:47:17;95441.78;;;21.27;26.92
7182;BME280;3632;42.724;23.298;2023-02-21T10:49:49;95380.72;;;20.74;26.85
7182;BME280;3632;42.724;23.298;2023-02-21T10:52:18;95397.03;;;20.07;27.06
7182;BME280;3632;42.724;23.298;2023-02-21T10:54:59;95378.03;;;20.82;27.20
7182;BME280;3632;42.724;23.298;2023-02-21T10:57:27;94958.84;;;18.26;27.21
7182;BME280;3632;42.724;23.298;2023-02-21T10:59:56;94887.31;;;18.20;27.58
7182;BME280;3632;42.724;23.298;2023-02-21T11:02:28;95420.53;;;21.53;27.34
7182;BME280;3632;42.724;23.298;2023-02-21T11:05:08;95410.16;;;21.53;27.46
7182;BME280;3632;42.724;23.298;2023-02-21T11:07:35;95412.41;;;21.98;28.95
7182;BME280;3632;42.724;23.298;2023-02-21T11:10:24;95132.91;;;20.24;28.29
7182;BME280;3632;42.724;23.298;2023-02-21T11:13:01;95394.44;;;22.18;27.18
7182;BME280;3632;42.724;23.298;2023-02-21T11:15:28;95314.88;;;21.61;27.07
7182;BME280;3632;42.724;23.298;2023-02-21T11:18:09;95228.03;;;20.51;26.38
7182;BME280;3632;42.724;23.298;2023-02-21T11:20:38;95388.97;;;22.41;26.63
7182;BME280;3632;42.724;23.298;2023-02-21T11:23:18;95380.81;;;22.71;27.55
7182;BME280;3632;42.724;23.298;2023-02-21T11:25:47;95371.94;;;23.00;25.53
7182;BME280;3632;42.724;23.298;2023-02-21T11:28:18;95372.00;;;23.07;25.09
7182;BME280;3632;42.724;23.298;2023-02-21T11:30:50;95183.63;;;22.42;25.50
7182;BME280;3632;42.724;23.298;2023-02-21T11:33:29;95374.00;;;23.98;27.53
7182;BME280;3632;42.724;23.298;2023-02-21T11:36:08;95368.56;;;23.93;27.48
7182;BME280;3632;42.724;23.298;2023-02-21T11:38:37;94964.63;;;21.01;27.64
7182;BME280;3632;42.724;23.298;2023-02-21T11:41:17;95353.75;;;23.00;27.39
7182;BME280;3632;42.724;23.298;2023-02-21T11:43:47;95353.78;;;22.31;27.49
7182;BME280;3632;42.724;23.298;2023-02-21T11:46:23;95150.19;;;21.78;27.91
7182;BME280;3632;42.724;23.298;2023-02-21T11:48:58;95342.19;;;23.09;29.20
7182;BME280;3632;42.724;23.298;2023-02-21T11:51:33;95398.28;;;23.32;28.94
7182;BME280;3632;42.724;23.298;2023-02-21T11:54:03;95335.84;;;23.32;27.78
7182;BME280;3632;42.724;23.298;2023-02-21T11:56:43;95284.88;;;22.01;27.95
7182;BME280;3632;42.724;23.298;2023-02-21T11:59:29;95325.22;;;23.27;28.74
7182;BME280;3632;42.724;23.298;2023-02-21T12:05:23;95278.09;;;23.62;29.17
7182;BME280;3632;42.724;23.298;2023-02-21T12:10:50;95300.75;;;25.17;30.06
7182;BME280;3632;42.724;23.298;2023-02-21T12:13:30;95290.06;;;25.63;27.69
7182;BME280;3632;42.724;23.298;2023-02-21T12:16:08;95298.34;;;25.22;26.04
7182;BME280;3632;42.724;23.298;2023-02-21T12:18:56;95234.47;;;25.31;25.71
7182;BME280;3632;42.724;23.298;2023-02-21T12:21:35;95269.06;;;26.19;25.29
7182;BME280;3632;42.724;23.298;2023-02-21T12:24:26;94958.78;;;24.39;24.65
7182;BME280;3632;42.724;23.298;2023-02-21T12:26:59;95263.41;;;27.24;23.42
7182;BME280;3632;42.724;23.298;2023-02-21T12:29:42;95258.75;;;27.80;23.42
7182;BME280;3632;42.724;23.298;2023-02-21T12:32:23;95164.66;;;27.32;21.94
7182;BME280;3632;42.724;23.298;2023-02-21T12:35:07;95243.47;;;28.46;21.57
7182;BME280;3632;42.724;23.298;2023-02-21T12:37:44;95178.66;;;28.70;21.21
7182;BME280;3632;42.724;23.298;2023-02-21T12:40:20;95243.56;;;29.31;20.91
7182;BME280;3632;42.724;23.298;2023-02-21T12:43:06;95125.28;;;28.93;20.44
7182;BME280;3632;42.724;23.298;2023-02-21T12:45:48;95234.06;;;29.30;20.41
7182;BME280;3632;42.724;23.298;2023-02-21T12:48:24;95239.25;;;28.97;20.72
7182;BME280;3632;42.724;23.298;2023-02-21T12:50:55;95229.25;;;29.11;20.69
7182;BME280;3632;42.724;23.298;2023-02-21T12:53:28;95244.94;;;29.22;19.97
7182;BME280;3632;42.724;23.298;2023-02-21T12:56:01;95220.19;;;29.18;20.55
7182;BME280;3632;42.724;23.298;2023-02-21T12:58:33;95101.13;;;28.63;20.63
7182;BME280;3632;42.724;23.298;2023-02-21T13:01:08;94989.84;;;28.25;19.95
7182;BME280;3632;42.724;23.298;2023-02-21T13:03:47;95205.94;;;28.57;20.16
7182;BME280;3632;42.724;23.298;2023-02-21T13:06:20;95181.91;;;28.89;20.74
7182;BME280;3632;42.724;23.298;2023-02-21T13:08:55;95218.34;;;29.02;20.25
7182;BME280;3632;42.724;23.298;2023-02-21T13:11:30;95224.84;;;29.28;19.92
7182;BME280;3632;42.724;23.298;2023-02-21T13:13:58;94804.06;;;26.42;20.53
7182;BME280;3632;42.724;23.298;2023-02-21T13:16:27;95108.53;;;28.94;20.32
7182;BME280;3632;42.724;23.298;2023-02-21T13:18:56;95209.66;;;29.46;19.80
7182;BME280;3632;42.724;23.298;2023-02-21T13:21:35;95127.41;;;29.63;19.84
7182;BME280;3632;42.724;23.298;2023-02-21T13:24:12;94860.69;;;28.30;19.21
7182;BME280;3632;42.724;23.298;2023-02-21T13:26:48;95161.97;;;29.21;19.06
7182;BME280;3632;42.724;23.298;2023-02-21T13:29:20;94695.06;;;26.54;19.81
7182;BME280;3632;42.724;23.298;2023-02-21T13:31:57;94917.91;;;27.88;19.20
7182;BME280;3632;42.724;23.298;2023-02-21T13:34:28;95202.22;;;28.82;20.10
7182;BME280;3632;42.724;23.298;2023-02-21T13:37:00;95144.06;;;27.93;20.14
7182;BME280;3632;42.724;23.298;2023-02-21T13:39:33;94880.25;;;26.04;20.97
7182;BME280;3632;42.724;23.298;2023-02-21T13:42:07;95119.81;;;27.05;20.57
7182;BME280;3632;42.724;23.298;2023-02-21T13:44:38;94929.84;;;26.57;20.51
7182;BME280;3632;42.724;23.298;2023-02-21T13:47:12;95181.28;;;28.07;20.92
7182;BME280;3632;42.724;23.298;2023-02-21T13:49:52;95174.81;;;28.21;20.73
7182;BME280;3632;42.724;23.298;2023-02-21T13:52:35;94859.84;;;26.36;20.28
7182;BME280;3632;42.724;23.298;2023-02-21T13:55:32;94906.53;;;26.44;20.56
7182;BME280;3632;42.724;23.298;2023-02-21T13:58:29;95176.78;;;28.82;20.08